Time;durP1;ratioP1;P1;durP2;ratioP2;P2;SDS_P1;SDS_P2;PMS_P1;PMS_P2;Temp;Humidity;BMP_temperature;BMP_pressure;BME280_temperature;BME280_humidity;BME280_pressure;Samples;Min_cycle;Max_cycle;Signal;HPM_P1;HPM_P2
2021/10/03 00:14:12;;;;;;;15.25;9.73;;;;;;;12.66;60.21;100155.28;4925147;28;96888;-80
2021/10/03 00:40:25;;;;;;;25.00;10.85;;;;;;;12.65;60.18;100113.19;4925986;28;96589;-80
2021/10/03 01:28:55;;;;;;;18.45;10.15;;;;;;;12.06;62.47;100099.16;4931282;28;96836;-80
2021/10/03 01:31:30;;;;;;;16.00;11.25;;;;;;;12.02;62.69;100102.00;4926713;28;97485;-79
2021/10/03 01:38:07;;;;;;;13.85;9.93;;;;;;;12.00;62.74;100094.16;4924924;28;96598;-80
2021/10/03 01:48:39;;;;;;;13.65;10.02;;;;;;;11.91;62.81;100091.94;4924535;28;96941;-79
2021/10/03 02:26:53;;;;;;;14.30;9.80;;;;;;;11.61;63.73;100097.56;4925225;28;96567;-79
2021/10/03 03:22:12;;;;;;;14.77;9.23;;;;;;;11.04;64.94;100070.09;4925593;28;96545;-80
2021/10/03 04:25:45;;;;;;;9.75;8.55;;;;;;;10.64;65.30;100041.00;4946160;28;96553;-80
2021/10/03 05:04:49;;;;;;;11.63;8.27;;;;;;;10.76;65.11;100018.69;4952725;28;96647;-81
2021/10/03 06:41:03;;;;;;;10.88;8.18;;;;;;;13.86;57.04;99998.34;4917741;28;96275;-81
2021/10/03 07:15:44;;;;;;;11.73;8.37;;;;;;;20.08;43.97;99970.81;4908137;28;97173;-88
2021/10/03 07:18:12;;;;;;;16.52;8.75;;;;;;;18.55;46.88;99975.25;4888277;28;98271;-82
2021/10/03 07:20:37;;;;;;;12.05;8.05;;;;;;;21.54;41.75;99977.56;4887356;28;97090;-81
2021/10/03 07:23:03;;;;;;;12.75;7.30;;;;;;;22.09;40.56;99971.97;4900163;28;97140;-82
2021/10/03 07:25:28;;;;;;;15.27;8.77;;;;;;;21.77;40.91;99969.41;4897949;28;98197;-81
2021/10/03 07:27:54;;;;;;;12.65;8.70;;;;;;;23.27;38.29;99959.53;4899294;28;101353;-82
2021/10/03 07:30:19;;;;;;;20.45;7.85;;;;;;;23.87;37.07;99959.28;4883119;28;97191;-83
2021/10/03 07:32:45;;;;;;;10.57;7.60;;;;;;;25.20;35.55;99958.81;4872504;28;97213;-87
2021/10/03 07:35:11;;;;;;;9.25;7.65;;;;;;;26.17;33.61;99957.75;4887090;28;98821;-83
2021/10/03 07:37:37;;;;;;;8.80;7.22;;;;;;;26.06;33.51;99968.78;4905953;28;101333;-82
2021/10/03 07:40:21;;;;;;;11.43;8.88;;;;;;;25.62;34.57;99959.94;4901209;28;97042;-83
2021/10/03 07:42:47;;;;;;;8.95;7.70;;;;;;;25.00;35.79;99966.13;4883973;28;96864;-87
2021/10/03 07:45:12;;;;;;;12.43;7.55;;;;;;;26.86;33.06;99966.56;4899516;28;102105;-83
2021/10/03 07:47:38;;;;;;;10.88;7.85;;;;;;;25.52;34.38;99965.44;4899341;28;101190;-83
2021/10/03 07:50:04;;;;;;;11.10;7.47;;;;;;;24.93;35.85;99959.72;4899734;28;97152;-83
2021/10/03 07:52:30;;;;;;;8.98;7.70;;;;;;;27.53;31.81;99955.66;4916675;28;97161;-83
2021/10/03 07:54:56;;;;;;;14.48;7.93;;;;;;;28.28;31.09;99956.31;4899069;28;100972;-82
2021/10/03 07:57:21;;;;;;;11.25;7.40;;;;;;;29.87;29.01;99952.94;4890885;28;98328;-83
2021/10/03 07:59:47;;;;;;;10.98;7.72;;;;;;;29.96;28.65;99946.41;4928046;28;96728;-88
2021/10/03 08:02:12;;;;;;;14.32;9.43;;;;;;;30.68;27.72;99945.66;4892689;28;97193;-83
2021/10/03 08:04:38;;;;;;;9.48;7.85;;;;;;;31.00;27.14;99941.66;4901521;28;101372;-83
2021/10/03 08:07:03;;;;;;;12.20;8.13;;;;;;;30.28;28.01;99952.47;4898858;28;101084;-83
2021/10/03 08:09:29;;;;;;;16.73;7.53;;;;;;;29.99;28.31;99935.22;4902718;28;96722;-84
2021/10/03 08:11:54;;;;;;;12.00;8.45;;;;;;;30.89;27.23;99932.19;4905378;28;96978;-84
2021/10/03 08:14:20;;;;;;;11.85;7.97;;;;;;;31.28;26.51;99922.72;4915492;28;101621;-83
2021/10/03 08:16:46;;;;;;;11.90;9.13;;;;;;;30.41;27.24;99936.41;4892475;28;101861;-87
2021/10/03 08:19:12;;;;;;;9.02;7.85;;;;;;;31.57;26.56;99921.72;4918096;28;96902;-83
2021/10/03 08:21:37;;;;;;;14.30;9.68;;;;;;;31.80;26.20;99923.31;4894176;28;96935;-84
2021/10/03 08:24:03;;;;;;;9.82;8.50;;;;;;;31.20;26.96;99920.13;4897918;28;100753;-84
2021/10/03 08:26:29;;;;;;;15.85;8.40;;;;;;;28.83;29.96;99915.69;4902186;28;101100;-84
2021/10/03 08:28:54;;;;;;;10.65;7.78;;;;;;;30.10;28.29;99915.81;4898666;28;96679;-84
2021/10/03 08:31:20;;;;;;;11.07;7.78;;;;;;;29.92;28.62;99921.59;4908171;28;96932;-84
2021/10/03 08:33:45;;;;;;;12.18;8.25;;;;;;;30.47;27.92;99929.41;4918215;28;101210;-84
2021/10/03 08:36:11;;;;;;;11.65;8.77;;;;;;;30.58;27.74;99921.63;4898708;28;101625;-83
2021/10/03 08:38:37;;;;;;;9.02;8.00;;;;;;;31.13;27.08;99916.56;4893943;28;97213;-84
2021/10/03 08:41:03;;;;;;;13.13;9.05;;;;;;;31.42;26.70;99912.00;4923091;28;96747;-84
2021/10/03 08:43:29;;;;;;;10.93;8.80;;;;;;;31.36;26.72;99900.09;4897570;28;101159;-84
2021/10/03 08:45:57;;;;;;;9.63;8.13;;;;;;;31.70;26.45;99901.13;4907155;28;101151;-84
2021/10/03 08:48:24;;;;;;;11.50;7.60;;;;;;;31.98;25.90;99895.66;4918167;28;97195;-84
2021/10/03 08:50:50;;;;;;;10.40;8.25;;;;;;;32.26;25.95;99898.31;4934312;28;96921;-87
2021/10/03 08:53:16;;;;;;;10.38;7.80;;;;;;;32.01;25.94;99911.53;4920138;28;101438;-84
2021/10/03 08:55:42;;;;;;;9.50;7.90;;;;;;;32.41;25.76;99906.28;4901485;28;101139;-84
2021/10/03 08:58:07;;;;;;;13.32;8.02;;;;;;;32.15;25.91;99902.44;4898345;28;96927;-83
2021/10/03 09:00:34;;;;;;;9.95;7.53;;;;;;;32.19;25.96;99890.09;4908684;28;96910;-84
2021/10/03 09:03:04;;;;;;;11.38;7.75;;;;;;;32.18;25.48;99896.59;4901231;28;101857;-84
2021/10/03 09:05:35;;;;;;;11.02;7.78;;;;;;;32.28;25.57;99901.63;4925936;28;99629;-84
2021/10/03 09:08:11;;;;;;;11.52;8.25;;;;;;;32.35;25.70;99910.66;4912506;28;97137;-84
2021/10/03 09:10:59;;;;;;;10.82;7.68;;;;;;;31.70;26.47;99901.94;4895271;28;96711;-83
2021/10/03 09:13:30;;;;;;;13.80;8.05;;;;;;;31.68;26.77;99893.19;4906990;28;101476;-83
2021/10/03 09:16:09;;;;;;;9.45;8.23;;;;;;;32.13;26.34;99899.06;4904148;28;101871;-84
2021/10/03 09:18:47;;;;;;;12.73;9.02;;;;;;;30.39;27.53;99900.56;4917740;28;96607;-83
2021/10/03 09:21:31;;;;;;;12.85;9.13;;;;;;;30.83;27.41;99905.84;4917505;28;96765;-83
2021/10/03 09:24:02;;;;;;;10.85;9.00;;;;;;;29.72;28.90;99907.81;4914400;28;101520;-83
2021/10/03 09:26:29;;;;;;;9.52;8.65;;;;;;;29.03;29.54;99902.56;4908044;28;101778;-84
2021/10/03 09:28:55;;;;;;;9.95;8.70;;;;;;;29.46;29.47;99894.69;4916782;28;96654;-84
2021/10/03 09:31:21;;;;;;;9.88;8.98;;;;;;;30.01;28.52;99896.13;4914575;28;96952;-83
2021/10/03 09:33:52;;;;;;;12.50;9.07;;;;;;;30.24;28.54;99887.06;4894943;28;101193;-84
2021/10/03 09:36:23;;;;;;;9.50;8.60;;;;;;;30.90;27.96;99881.53;4893074;28;101566;-84
2021/10/03 09:39:03;;;;;;;12.18;9.00;;;;;;;29.60;28.85;99901.16;4910681;28;97085;-90
2021/10/03 09:41:29;;;;;;;;;;;;;;;27.77;31.50;99894.59;4912015;28;96847;-84
2021/10/03 09:44:02;;;;;;;10.15;9.10;;;;;;;28.18;31.40;99889.91;4904315;28;97683;-83
2021/10/03 09:46:48;;;;;;;14.57;9.27;;;;;;;28.85;30.62;99897.41;4917228;28;97594;-83
2021/10/03 09:49:16;;;;;;;9.73;8.75;;;;;;;28.42;31.17;99880.00;4881558;28;96762;-83
2021/10/03 09:51:47;;;;;;;10.00;9.05;;;;;;;27.79;31.83;99897.16;4895212;28;96669;-83
2021/10/03 09:54:15;;;;;;;10.73;8.65;;;;;;;28.26;31.81;99891.72;4891723;28;101395;-83
2021/10/03 09:56:42;;;;;;;12.90;9.05;;;;;;;28.83;31.13;99879.75;4901169;28;101071;-83
2021/10/03 09:59:08;;;;;;;11.10;7.97;;;;;;;28.82;31.38;99878.88;4924774;28;97148;-84
2021/10/03 10:01:38;;;;;;;9.88;8.32;;;;;;;27.98;32.03;99867.06;4897123;28;96923;-83
2021/10/03 10:04:07;;;;;;;9.70;8.70;;;;;;;27.53;32.98;99876.66;4897470;28;100091;-83
2021/10/03 10:06:33;;;;;;;10.90;9.05;;;;;;;26.57;34.22;99880.03;4899979;28;101312;-84
2021/10/03 10:09:04;;;;;;;10.15;8.85;;;;;;;26.25;35.08;99872.72;4920863;28;97153;-84
2021/10/03 10:11:52;;;;;;;14.82;9.50;;;;;;;25.91;35.78;99857.47;4901444;28;96858;-84
2021/10/03 10:14:26;;;;;;;11.18;9.18;;;;;;;26.07;35.73;99862.91;4912753;28;101707;-84
2021/10/03 10:16:56;;;;;;;12.60;9.50;;;;;;;25.57;36.63;99865.50;4899771;28;101482;-90
2021/10/03 10:19:30;;;;;;;15.05;9.25;;;;;;;25.89;36.15;99860.34;4903182;28;96795;-84
2021/10/03 10:22:20;;;;;;;12.32;9.15;;;;;;;26.08;35.99;99856.53;4896438;28;96851;-84
2021/10/03 10:24:48;;;;;;;11.03;9.93;;;;;;;25.43;37.20;99865.13;4904482;28;101618;-83
2021/10/03 10:27:28;;;;;;;12.93;9.63;;;;;;;24.39;38.79;99856.84;4902239;28;101457;-83
2021/10/03 10:29:58;;;;;;;13.50;9.82;;;;;;;23.82;39.46;99883.00;4905544;28;96662;-90
2021/10/03 10:32:30;;;;;;;16.52;10.52;;;;;;;24.04;39.49;99858.47;4913218;28;96619;-83
2021/10/03 10:35:08;;;;;;;14.70;9.48;;;;;;;24.02;39.76;99856.94;4891220;28;101393;-84
2021/10/03 10:38:15;;;;;;;13.80;9.45;;;;;;;23.99;39.59;99866.13;4916282;28;97386;-83
2021/10/03 10:40:41;;;;;;;10.00;9.00;;;;;;;23.30;40.82;99848.63;4901694;28;96965;-83
2021/10/03 10:43:06;;;;;;;10.30;9.32;;;;;;;23.50;40.46;99860.97;4881305;28;96958;-84
2021/10/03 10:45:35;;;;;;;12.30;9.15;;;;;;;23.30;41.02;99859.34;4910293;28;101164;-83
2021/10/03 10:48:10;;;;;;;13.10;10.43;;;;;;;23.25;41.51;99850.88;4914094;28;101886;-84
2021/10/03 10:50:44;;;;;;;12.00;8.80;;;;;;;23.31;40.95;99852.16;4897658;28;96540;-83
2021/10/03 10:53:16;;;;;;;13.73;8.88;;;;;;;22.98;42.15;99838.25;4912921;28;97361;-83
2021/10/03 10:55:42;;;;;;;11.15;10.07;;;;;;;22.73;42.41;99843.19;4900696;28;101294;-83
2021/10/03 10:58:09;;;;;;;12.23;8.65;;;;;;;22.82;42.42;99836.97;4883602;28;101671;-81
2021/10/03 11:00:54;;;;;;;11.25;8.57;;;;;;;22.82;42.83;99833.47;4915882;28;97103;-83
2021/10/03 11:03:20;;;;;;;9.65;8.77;;;;;;;22.81;42.64;99816.56;4911033;28;96855;-83
2021/10/03 11:05:47;;;;;;;9.60;8.70;;;;;;;22.76;42.69;99829.53;4893382;28;101628;-83
2021/10/03 11:08:20;;;;;;;10.88;9.10;;;;;;;22.43;42.06;99821.91;4886208;28;101611;-81
2021/10/03 11:10:58;;;;;;;11.60;8.70;;;;;;;22.36;42.55;99814.47;4919610;28;97082;-82
2021/10/03 11:13:44;;;;;;;9.93;9.02;;;;;;;22.09;42.90;99825.81;4919831;28;96891;-81
2021/10/03 11:16:29;;;;;;;10.10;9.10;;;;;;;21.77;43.24;99825.19;4902673;28;101455;-82
2021/10/03 11:19:03;;;;;;;10.27;9.27;;;;;;;21.60;43.58;99832.00;4906345;28;101406;-90
2021/10/03 11:21:31;;;;;;;13.30;9.50;;;;;;;21.53;43.65;99837.03;4900553;28;96900;-84
2021/10/03 11:23:59;;;;;;;10.32;9.32;;;;;;;21.62;44.13;99822.03;4913582;28;96864;-83
2021/10/03 11:26:25;;;;;;;11.48;9.70;;;;;;;21.66;44.10;99815.44;4913437;28;99752;-82
2021/10/03 11:28:58;;;;;;;9.40;8.50;;;;;;;21.69;44.36;99810.66;4906156;28;97469;-82
2021/10/03 11:31:39;;;;;;;10.88;9.82;;;;;;;21.67;44.42;99801.94;4918418;28;96945;-82
2021/10/03 11:34:06;;;;;;;10.90;9.30;;;;;;;21.65;44.49;99801.22;4919221;28;96845;-82
2021/10/03 11:36:32;;;;;;;12.50;9.93;;;;;;;21.61;44.56;99805.16;4905965;28;101242;-83
2021/10/03 11:38:59;;;;;;;10.90;8.85;;;;;;;21.62;44.74;99806.84;4893261;28;100903;-84
2021/10/03 11:41:26;;;;;;;9.90;8.85;;;;;;;21.70;44.68;99809.69;4876930;28;96879;-82
2021/10/03 11:43:53;;;;;;;11.30;9.13;;;;;;;21.69;44.67;99797.31;4884505;28;96950;-87
2021/10/03 11:46:18;;;;;;;11.45;9.82;;;;;;;21.70;44.63;99798.16;4889129;28;101541;-83
2021/10/03 11:48:51;;;;;;;11.52;9.60;;;;;;;21.67;44.60;99804.63;4885633;28;97976;-82
2021/10/03 11:51:17;;;;;;;10.35;9.35;;;;;;;21.61;44.97;99799.84;4899274;28;96674;-83
2021/10/03 11:53:47;;;;;;;10.73;9.07;;;;;;;21.61;44.71;99807.84;4887728;28;96933;-82
2021/10/03 11:56:14;;;;;;;13.23;9.00;;;;;;;21.47;44.84;99798.38;4881835;28;102081;-83
2021/10/03 11:58:42;;;;;;;10.38;9.32;;;;;;;21.54;45.13;99796.00;4903174;28;98229;-83
2021/10/03 12:01:07;;;;;;;11.57;9.68;;;;;;;21.57;45.06;99792.22;4867891;28;97228;-83
2021/10/03 12:03:44;;;;;;;13.15;9.30;;;;;;;21.63;45.26;99795.19;4884266;28;97031;-82
2021/10/03 12:06:30;;;;;;;9.63;8.63;;;;;;;21.79;45.73;99796.50;4879770;28;101000;-82
2021/10/03 12:08:55;;;;;;;10.60;9.52;;;;;;;21.74;44.82;99799.56;4896382;28;97953;-88
2021/10/03 12:11:22;;;;;;;10.07;8.80;;;;;;;21.67;45.31;99785.94;4876301;28;96903;-83
2021/10/03 12:14:01;;;;;;;12.82;8.82;;;;;;;21.71;45.05;99789.16;4891567;28;97004;-82
2021/10/03 12:16:27;;;;;;;13.98;9.27;;;;;;;21.62;45.13;99790.00;4866850;28;101204;-82
2021/10/03 12:19:04;;;;;;;10.68;9.20;;;;;;;21.64;45.77;99788.88;4864074;28;101731;-87
2021/10/03 12:21:31;;;;;;;10.75;9.40;;;;;;;21.69;45.49;99783.94;4867956;28;96948;-83
2021/10/03 12:24:03;;;;;;;9.68;8.75;;;;;;;21.63;45.61;99783.66;4899250;28;96825;-85
2021/10/03 12:26:41;;;;;;;12.75;9.30;;;;;;;21.69;45.44;99777.75;4879502;28;101476;-84
2021/10/03 12:29:07;;;;;;;12.20;8.13;;;;;;;21.59;45.38;99784.91;4896635;28;101160;-81
2021/10/03 12:31:44;;;;;;;15.50;9.45;;;;;;;21.61;45.20;99782.94;4896327;28;96667;-82
2021/10/03 12:34:13;;;;;;;10.85;9.80;;;;;;;21.61;45.56;99780.25;4902368;28;97035;-82
2021/10/03 12:36:40;;;;;;;10.20;8.80;;;;;;;21.60;45.52;99784.75;4881476;28;101395;-83
2021/10/03 12:39:05;;;;;;;15.80;9.82;;;;;;;21.66;45.60;99786.88;4886431;28;101354;-83
2021/10/03 12:41:31;;;;;;;10.90;8.15;;;;;;;21.72;45.62;99782.00;4922345;28;96974;-83
2021/10/03 12:43:57;;;;;;;11.55;8.68;;;;;;;21.78;45.71;99771.59;4902228;28;97199;-88
2021/10/03 12:46:23;;;;;;;11.68;8.63;;;;;;;;;;4886070;28;101481;-82
2021/10/03 12:48:49;;;;;;;10.52;8.90;;;;;;;21.81;46.03;99782.00;4922323;28;98434;-81
2021/10/03 12:51:15;;;;;;;14.00;8.88;;;;;;;21.81;46.29;99783.84;4918471;28;96625;-84
2021/10/03 12:53:41;;;;;;;12.60;9.52;;;;;;;21.77;46.27;99775.25;4883873;28;96566;-82
2021/10/03 12:56:07;;;;;;;10.57;8.48;;;;;;;21.75;46.19;99787.91;4901639;28;101506;-82
2021/10/03 12:58:32;;;;;;;12.07;9.88;;;;;;;21.73;46.14;99784.53;4902314;28;100875;-83
2021/10/03 13:00:58;;;;;;;11.23;9.55;;;;;;;21.66;46.46;99792.22;4917924;28;96753;-87
2021/10/03 13:03:24;;;;;;;10.60;9.50;;;;;;;21.55;46.60;99778.16;4915113;28;96901;-81
2021/10/03 13:05:50;;;;;;;17.90;10.00;;;;;;;21.57;46.90;99778.84;4914466;28;101530;-82
2021/10/03 13:08:15;;;;;;;10.57;9.57;;;;;;;21.59;47.04;99771.56;4906335;28;97848;-82
2021/10/03 13:10:41;;;;;;;15.25;10.13;;;;;;;21.56;46.71;99787.88;4916257;28;96553;-82
2021/10/03 13:13:07;;;;;;;12.82;9.30;;;;;;;21.50;46.79;99789.25;4926797;28;96593;-82
2021/10/03 13:15:34;;;;;;;11.60;9.38;;;;;;;21.53;46.86;99788.13;4926850;28;96974;-82
2021/10/03 13:17:59;;;;;;;10.77;9.70;;;;;;;21.43;46.43;99786.25;4913501;28;101332;-85
2021/10/03 13:20:25;;;;;;;10.90;9.55;;;;;;;21.43;47.00;99777.41;4921594;28;96761;-83
2021/10/03 13:22:51;;;;;;;19.20;9.93;;;;;;;21.46;46.81;99779.78;4918725;28;96793;-82
2021/10/03 13:25:17;;;;;;;10.50;9.32;;;;;;;21.45;47.10;99770.94;4901247;28;101167;-83
2021/10/03 13:27:42;;;;;;;11.52;9.73;;;;;;;21.42;47.03;99786.41;4904301;28;101355;-82
2021/10/03 13:30:10;;;;;;;12.05;9.85;;;;;;;21.34;47.38;99784.34;4916951;28;97031;-83
2021/10/03 13:32:36;;;;;;;11.60;10.40;;;;;;;21.39;47.44;99781.34;4905958;28;96899;-83
2021/10/03 13:35:02;;;;;;;10.98;9.88;;;;;;;21.46;47.37;99783.31;4916928;28;101197;-84
2021/10/03 13:37:27;;;;;;;10.82;9.80;;;;;;;21.41;47.06;99785.56;4911091;28;101284;-84
2021/10/03 13:39:53;;;;;;;10.38;9.27;;;;;;;21.29;47.22;99783.06;4914709;28;96828;-83
2021/10/03 13:42:18;;;;;;;12.60;10.20;;;;;;;21.37;46.88;99786.78;4863251;28;97412;-83
2021/10/03 13:44:44;;;;;;;10.80;9.80;;;;;;;21.41;46.92;99790.91;4904489;28;98278;-84
2021/10/03 13:47:09;;;;;;;10.88;8.93;;;;;;;21.44;46.94;99785.28;4879002;28;100817;-84
2021/10/03 13:49:35;;;;;;;9.82;8.77;;;;;;;21.35;47.67;99778.06;4901161;28;97847;-83
2021/10/03 13:52:01;;;;;;;15.98;10.05;;;;;;;21.30;47.09;99782.94;4897776;28;97033;-84
2021/10/03 13:54:26;;;;;;;11.27;9.80;;;;;;;21.31;47.40;99781.13;4897240;28;101240;-84
2021/10/03 13:56:52;;;;;;;11.73;10.60;;;;;;;21.21;47.65;99775.75;4876424;28;97418;-83
2021/10/03 13:59:20;;;;;;;10.10;9.10;;;;;;;21.25;47.40;99783.34;4884032;28;97157;-85
2021/10/03 14:01:45;;;;;;;11.23;9.85;;;;;;;21.27;47.30;99775.22;4897742;28;96974;-83
2021/10/03 14:04:11;;;;;;;11.15;10.15;;;;;;;21.29;47.63;99780.41;4867921;28;101434;-84
2021/10/03 14:06:36;;;;;;;12.98;8.73;;;;;;;21.27;47.84;99785.03;4896792;28;100101;-82
2021/10/03 14:09:02;;;;;;;13.48;9.50;;;;;;;21.27;47.42;99783.22;4852193;28;96683;-84
2021/10/03 14:11:28;;;;;;;12.60;10.10;;;;;;;21.27;47.48;99787.72;4891437;28;97103;-87
2021/10/03 14:13:53;;;;;;;11.48;9.85;;;;;;;21.19;47.10;99780.38;4906270;28;98563;-83
2021/10/03 14:16:19;;;;;;;12.55;9.90;;;;;;;21.12;47.59;99782.72;4867490;28;101812;-83
2021/10/03 14:18:44;;;;;;;13.40;10.00;;;;;;;21.13;47.57;99783.56;4889706;28;96712;-83
2021/10/03 14:21:10;;;;;;;14.88;9.20;;;;;;;21.11;47.49;99778.34;4892941;28;96937;-83
2021/10/03 14:23:36;;;;;;;10.57;9.43;;;;;;;21.16;47.29;99788.63;4878609;28;98152;-83
2021/10/03 14:26:02;;;;;;;11.98;10.20;;;;;;;21.18;47.43;99784.88;4909042;28;101805;-84
2021/10/03 14:28:28;;;;;;;11.15;9.95;;;;;;;21.19;47.33;99783.88;4886479;28;96926;-84
2021/10/03 14:30:54;;;;;;;12.85;10.15;;;;;;;21.14;47.33;99778.09;4897687;28;96915;-83
2021/10/03 14:33:19;;;;;;;11.98;10.15;;;;;;;21.06;47.13;99793.06;4877730;28;101571;-83
2021/10/03 14:35:45;;;;;;;14.52;9.93;;;;;;;20.99;47.34;99777.59;4897341;28;97258;-84
2021/10/03 14:38:11;;;;;;;10.82;9.82;;;;;;;21.02;47.35;99787.16;4896624;28;97125;-84
2021/10/03 14:40:37;;;;;;;12.48;9.63;;;;;;;20.96;47.32;99783.19;4882362;28;97141;-83
2021/10/03 14:43:03;;;;;;;10.93;9.82;;;;;;;20.98;47.38;99788.41;4880619;28;102480;-84
2021/10/03 14:45:28;;;;;;;10.13;9.13;;;;;;;20.96;47.48;99796.53;4880531;28;101109;-84
2021/10/03 14:47:55;;;;;;;11.68;9.75;;;;;;;20.95;47.41;99802.84;4881655;28;96956;-83
2021/10/03 14:50:21;;;;;;;15.55;9.65;;;;;;;20.84;47.92;99792.25;4886755;28;97455;-84
2021/10/03 14:52:47;;;;;;;9.38;8.10;;;;;;;20.88;47.40;99807.00;4872536;28;98070;-84
2021/10/03 14:55:13;;;;;;;9.95;8.93;;;;;;;20.84;47.70;99808.25;4899826;28;101267;-83
2021/10/03 14:57:39;;;;;;;11.18;8.95;;;;;;;20.75;47.50;99806.38;4884915;28;96704;-84
2021/10/03 15:00:07;;;;;;;11.30;10.13;;;;;;;20.75;47.44;99809.03;4884143;28;97002;-83
2021/10/03 15:02:32;;;;;;;11.45;9.02;;;;;;;20.64;47.91;99811.75;4872113;28;97695;-84
2021/10/03 15:05:04;;;;;;;12.55;9.07;;;;;;;20.66;47.79;99804.47;4897003;28;101933;-88
2021/10/03 15:07:30;;;;;;;13.07;8.98;;;;;;;20.63;47.63;99802.91;4880420;28;96877;-84
2021/10/03 15:09:56;;;;;;;10.70;8.77;;;;;;;20.61;47.71;99804.00;4893169;28;97323;-83
2021/10/03 15:12:21;;;;;;;10.52;8.82;;;;;;;20.57;47.81;99800.78;4897175;28;97418;-84
2021/10/03 15:14:47;;;;;;;9.90;8.35;;;;;;;20.58;47.96;99799.78;4861586;28;100416;-83
2021/10/03 15:17:12;;;;;;;11.93;9.40;;;;;;;20.51;48.03;99796.75;4894125;28;97161;-84
2021/10/03 15:19:38;;;;;;;12.77;9.23;;;;;;;20.52;48.01;99806.47;4900550;28;97120;-84
2021/10/03 15:22:04;;;;;;;11.90;9.68;;;;;;;20.46;48.49;99800.78;4880788;28;101347;-84
2021/10/03 15:24:29;;;;;;;12.20;9.00;;;;;;;20.42;48.45;99807.31;4903721;28;97600;-84
2021/10/03 15:26:55;;;;;;;12.85;9.40;;;;;;;20.38;48.42;99805.91;4884241;28;97131;-83
2021/10/03 15:29:23;;;;;;;12.48;9.38;;;;;;;20.25;49.00;99816.75;4880885;28;97515;-84
2021/10/03 15:31:50;;;;;;;11.70;9.45;;;;;;;20.24;49.23;99823.03;4877479;28;101172;-86
2021/10/03 15:34:16;;;;;;;12.02;9.15;;;;;;;20.13;49.08;99818.59;4887157;28;98549;-84
2021/10/03 15:36:41;;;;;;;13.30;9.20;;;;;;;20.12;49.44;99819.53;4886825;28;96847;-84
2021/10/03 15:39:07;;;;;;;12.70;9.70;;;;;;;20.00;49.74;99816.06;4899298;28;96922;-83
2021/10/03 15:41:32;;;;;;;10.85;9.00;;;;;;;19.91;50.00;99824.81;4893476;28;101329;-84
2021/10/03 15:43:58;;;;;;;15.15;9.10;;;;;;;19.92;50.26;99838.97;4871523;28;100017;-86
2021/10/03 15:46:24;;;;;;;16.42;9.68;;;;;;;19.78;50.21;99829.41;4913146;28;96646;-84
2021/10/03 15:48:50;;;;;;;17.25;9.65;;;;;;;19.79;50.29;99834.63;4918642;28;96752;-82
2021/10/03 15:51:15;;;;;;;11.35;9.50;;;;;;;19.73;50.48;99831.63;4888486;28;102335;-84
2021/10/03 15:53:41;;;;;;;13.00;9.27;;;;;;;19.70;50.50;99842.50;4889503;28;101558;-84
2021/10/03 15:56:07;;;;;;;10.27;9.10;;;;;;;19.60;50.72;99839.69;4898379;28;96656;-84
2021/10/03 15:58:32;;;;;;;14.25;8.10;;;;;;;19.54;51.02;99841.00;4893286;28;98027;-85
2021/10/03 16:00:58;;;;;;;13.23;8.77;;;;;;;19.48;51.10;99838.84;4879800;28;100951;-91
2021/10/03 16:03:24;;;;;;;10.38;9.38;;;;;;;19.41;50.90;99827.00;4903493;28;99127;-85
2021/10/03 16:05:49;;;;;;;13.32;9.48;;;;;;;19.32;51.28;99833.03;4923162;28;97001;-86
2021/10/03 16:08:15;;;;;;;11.77;9.70;;;;;;;19.23;51.38;99830.13;4900668;28;96752;-84
2021/10/03 16:10:40;;;;;;;9.85;8.85;;;;;;;19.26;51.22;99839.69;4904794;28;98189;-85
2021/10/03 16:13:06;;;;;;;13.48;9.85;;;;;;;19.26;51.31;99842.34;4902152;28;101338;-84
2021/10/03 16:15:31;;;;;;;10.45;9.32;;;;;;;19.19;51.34;99839.28;4912328;28;97383;-84
2021/10/03 16:17:57;;;;;;;10.52;9.48;;;;;;;19.20;51.30;99846.34;4882693;28;97052;-84
2021/10/03 16:20:22;;;;;;;12.23;9.20;;;;;;;19.22;51.25;99849.69;4926714;28;96983;-84
2021/10/03 16:22:48;;;;;;;13.27;9.48;;;;;;;19.15;51.45;99851.16;4911696;28;101319;-86
2021/10/03 16:25:13;;;;;;;14.18;10.30;;;;;;;19.10;51.53;99848.00;4902105;28;97456;-84
2021/10/03 16:27:39;;;;;;;11.27;9.35;;;;;;;19.05;51.68;99846.66;4918196;28;96592;-83
2021/10/03 16:30:05;;;;;;;14.70;10.07;;;;;;;19.07;51.68;99842.06;4900922;28;101848;-84
2021/10/03 16:32:31;;;;;;;12.73;9.88;;;;;;;18.97;52.12;99852.56;4914670;28;100077;-84
2021/10/03 16:34:58;;;;;;;17.63;9.10;;;;;;;18.90;51.97;99854.84;4918189;28;96670;-85
2021/10/03 16:37:24;;;;;;;9.63;8.68;;;;;;;18.86;52.22;99858.69;4889383;28;96928;-84
2021/10/03 16:39:49;;;;;;;12.23;9.70;;;;;;;18.84;52.23;99863.28;4925429;28;97363;-85
2021/10/03 16:42:15;;;;;;;10.02;9.02;;;;;;;18.82;52.41;99874.97;4917355;28;97581;-84
2021/10/03 16:44:44;;;;;;;13.55;9.18;;;;;;;18.75;52.42;99871.94;4917623;28;96771;-85
2021/10/03 16:47:10;;;;;;;12.32;9.25;;;;;;;18.75;52.64;99861.31;4922116;28;96862;-84
2021/10/03 16:49:36;;;;;;;11.23;8.30;;;;;;;18.74;52.68;99870.25;4917627;28;97215;-84
2021/10/03 16:52:03;;;;;;;11.25;10.15;;;;;;;18.65;52.77;99871.78;4900934;28;101063;-84
2021/10/03 16:54:28;;;;;;;12.55;9.77;;;;;;;18.61;53.02;99875.59;4918096;28;96687;-84
2021/10/03 16:56:54;;;;;;;13.50;9.48;;;;;;;18.56;53.28;99864.50;4886707;28;97341;-85
2021/10/03 16:59:20;;;;;;;12.10;9.48;;;;;;;18.51;52.88;99877.25;4914061;28;97402;-85
2021/10/03 17:01:45;;;;;;;11.30;9.65;;;;;;;18.51;53.30;99863.97;4911909;28;98062;-85
2021/10/03 17:04:15;;;;;;;10.77;9.68;;;;;;;18.44;53.54;99870.69;4906724;28;96757;-85
2021/10/03 17:06:43;;;;;;;15.90;10.05;;;;;;;18.42;53.68;99867.31;4920898;28;96941;-85
2021/10/03 17:09:09;;;;;;;12.43;9.85;;;;;;;18.37;53.69;99869.47;4906776;28;100510;-84
2021/10/03 17:11:35;;;;;;;12.65;10.20;;;;;;;18.31;53.86;99863.63;4898221;28;101110;-85
2021/10/03 17:14:01;;;;;;;12.63;9.40;;;;;;;18.28;54.03;99863.84;4892362;28;96707;-85
2021/10/03 17:16:27;;;;;;;12.55;9.98;;;;;;;18.25;54.19;99864.06;4918406;28;96879;-84
2021/10/03 17:18:52;;;;;;;12.98;9.63;;;;;;;18.25;54.07;99861.41;4888387;28;101713;-85
2021/10/03 17:21:18;;;;;;;12.43;9.27;;;;;;;18.26;54.08;99868.41;4932437;28;101424;-85
2021/10/03 17:23:43;;;;;;;10.70;9.35;;;;;;;18.24;54.16;99867.72;4917708;28;96514;-85
2021/10/03 17:26:10;;;;;;;11.02;9.90;;;;;;;18.22;54.08;99861.66;4894775;28;96917;-84
2021/10/03 17:28:37;;;;;;;10.70;9.63;;;;;;;18.14;54.44;99871.97;4911087;28;98710;-85
2021/10/03 17:31:03;;;;;;;13.80;9.65;;;;;;;18.17;54.41;99878.88;4910097;28;98384;-85
2021/10/03 17:33:34;;;;;;;13.93;9.93;;;;;;;18.09;54.34;99877.63;4910302;28;96729;-87
2021/10/03 17:36:03;;;;;;;11.10;9.43;;;;;;;18.05;54.45;99870.84;4905889;28;97062;-85
2021/10/03 17:38:29;;;;;;;16.45;9.68;;;;;;;18.10;54.79;99886.44;4900494;28;101368;-86
2021/10/03 17:40:54;;;;;;;20.77;9.73;;;;;;;18.08;54.58;99883.03;4917711;28;98253;-85
2021/10/03 17:43:20;;;;;;;11.10;9.10;;;;;;;18.07;54.42;99890.16;4904048;28;96654;-85
2021/10/03 17:45:45;;;;;;;12.25;10.23;;;;;;;18.08;54.65;99897.16;4898200;28;96728;-85
2021/10/03 17:48:11;;;;;;;15.18;10.20;;;;;;;18.05;54.56;99888.56;4906076;28;101230;-85
2021/10/03 17:50:37;;;;;;;12.82;9.93;;;;;;;18.03;54.59;99893.16;4917908;28;96737;-84
2021/10/03 17:53:02;;;;;;;13.65;10.88;;;;;;;17.99;54.70;99889.88;4912239;28;96690;-85
2021/10/03 17:55:28;;;;;;;16.30;10.52;;;;;;;18.00;54.82;99904.84;4918218;28;96972;-87
2021/10/03 17:57:53;;;;;;;12.90;10.15;;;;;;;18.00;54.69;99896.88;4928666;28;100265;-82
2021/10/03 18:00:20;;;;;;;15.68;10.73;;;;;;;17.95;54.72;99901.69;4907570;28;101229;-87
2021/10/03 18:02:48;;;;;;;10.93;9.82;;;;;;;17.93;55.05;99903.59;4911926;28;97274;-92
2021/10/03 18:05:16;;;;;;;14.20;10.25;;;;;;;17.93;55.02;99894.78;4935436;28;96588;-94
2021/10/03 18:07:42;;;;;;;15.73;10.25;;;;;;;17.86;55.13;99895.22;5002126;23;98896;-93
2021/10/03 18:10:12;;;;;;;11.48;9.70;;;;;;;17.89;55.47;99902.13;5147950;23;99550;-89
2021/10/03 18:12:38;;;;;;;12.27;10.77;;;;;;;17.89;55.33;99904.78;4951563;28;96938;-89